sensor_id;sensor_type;location;lat;lon;timestamp;P1;durP1;ratioP1;P2;durP2;ratioP2
71236;SDS011;58984;51.960;5.582;2023-03-01T00:01:33;18.23;;;11.20;;
71236;SDS011;58984;51.960;5.582;2023-03-01T00:03:59;13.82;;;11.40;;
71236;SDS011;58984;51.960;5.582;2023-03-01T00:06:25;16.77;;;11.30;;
71236;SDS011;58984;51.960;5.582;2023-03-01T00:08:51;15.52;;;11.25;;
71236;SDS011;58984;51.960;5.582;2023-03-01T00:13:51;14.02;;;11.15;;
71236;SDS011;58984;51.960;5.582;2023-03-01T00:16:19;13.20;;;10.82;;
71236;SDS011;58984;51.960;5.582;2023-03-01T00:18:46;14.77;;;11.18;;
71236;SDS011;58984;51.960;5.582;2023-03-01T00:21:12;14.63;;;10.35;;
71236;SDS011;58984;51.960;5.582;2023-03-01T00:23:38;13.57;;;10.63;;
71236;SDS011;58984;51.960;5.582;2023-03-01T00:26:10;15.70;;;10.82;;
71236;SDS011;58984;51.960;5.582;2023-03-01T00:28:38;16.05;;;10.45;;
71236;SDS011;58984;51.960;5.582;2023-03-01T00:31:05;16.42;;;10.82;;
71236;SDS011;58984;51.960;5.582;2023-03-01T00:33:31;18.27;;;11.52;;
71236;SDS011;58984;51.960;5.582;2023-03-01T00:35:58;19.13;;;11.50;;
71236;SDS011;58984;51.960;5.582;2023-03-01T00:38:24;15.63;;;11.10;;
71236;SDS011;58984;51.960;5.582;2023-03-01T00:40:49;15.25;;;11.50;;
71236;SDS011;58984;51.960;5.582;2023-03-01T00:43:15;16.98;;;11.13;;
71236;SDS011;58984;51.960;5.582;2023-03-01T00:45:40;14.95;;;11.05;;
71236;SDS011;58984;51.960;5.582;2023-03-01T00:48:06;15.35;;;10.73;;
71236;SDS011;58984;51.960;5.582;2023-03-01T00:50:32;17.05;;;10.93;;
71236;SDS011;58984;51.960;5.582;2023-03-01T00:52:57;19.13;;;12.25;;
71236;SDS011;58984;51.960;5.582;2023-03-01T00:55:23;15.50;;;11.63;;
71236;SDS011;58984;51.960;5.582;2023-03-01T00:57:49;17.38;;;10.77;;
71236;SDS011;58984;51.960;5.582;2023-03-01T01:00:15;15.50;;;11.02;;
71236;SDS011;58984;51.960;5.582;2023-03-01T01:02:41;14.68;;;11.02;;
71236;SDS011;58984;51.960;5.582;2023-03-01T01:05:07;19.17;;;11.55;;
71236;SDS011;58984;51.960;5.582;2023-03-01T01:07:33;15.88;;;11.65;;
71236;SDS011;58984;51.960;5.582;2023-03-01T01:09:58;16.98;;;11.50;;
71236;SDS011;58984;51.960;5.582;2023-03-01T01:12:24;14.65;;;11.07;;
71236;SDS011;58984;51.960;5.582;2023-03-01T01:14:50;14.90;;;10.23;;
71236;SDS011;58984;51.960;5.582;2023-03-01T01:17:15;20.13;;;11.73;;
71236;SDS011;58984;51.960;5.582;2023-03-01T01:19:41;14.60;;;10.70;;
71236;SDS011;58984;51.960;5.582;2023-03-01T01:22:06;15.30;;;10.57;;
71236;SDS011;58984;51.960;5.582;2023-03-01T01:24:32;15.27;;;11.23;;
71236;SDS011;58984;51.960;5.582;2023-03-01T01:26:57;18.17;;;10.65;;
71236;SDS011;58984;51.960;5.582;2023-03-01T01:29:23;19.25;;;11.75;;
71236;SDS011;58984;51.960;5.582;2023-03-01T01:31:48;12.98;;;9.93;;
71236;SDS011;58984;51.960;5.582;2023-03-01T01:34:15;13.43;;;10.27;;
71236;SDS011;58984;51.960;5.582;2023-03-01T01:36:43;14.20;;;10.90;;
71236;SDS011;58984;51.960;5.582;2023-03-01T01:39:12;13.90;;;10.60;;
71236;SDS011;58984;51.960;5.582;2023-03-01T01:41:38;16.30;;;10.55;;
71236;SDS011;58984;51.960;5.582;2023-03-01T01:44:11;14.55;;;10.43;;
71236;SDS011;58984;51.960;5.582;2023-03-01T01:49:22;14.93;;;10.00;;
71236;SDS011;58984;51.960;5.582;2023-03-01T01:52:03;13.73;;;10.83;;
71236;SDS011;58984;51.960;5.582;2023-03-01T01:54:38;16.15;;;10.32;;
71236;SDS011;58984;51.960;5.582;2023-03-01T01:57:33;12.30;;;10.45;;
71236;SDS011;58984;51.960;5.582;2023-03-01T02:00:07;14.00;;;10.65;;
71236;SDS011;58984;51.960;5.582;2023-03-01T02:02:37;13.15;;;10.30;;
71236;SDS011;58984;51.960;5.582;2023-03-01T02:05:16;13.60;;;11.00;;
71236;SDS011;58984;51.960;5.582;2023-03-01T02:08:04;15.52;;;11.43;;
71236;SDS011;58984;51.960;5.582;2023-03-01T02:10:32;13.27;;;10.38;;
71236;SDS011;58984;51.960;5.582;2023-03-01T02:12:59;16.85;;;11.07;;
71236;SDS011;58984;51.960;5.582;2023-03-01T02:15:26;15.68;;;11.10;;
71236;SDS011;58984;51.960;5.582;2023-03-01T02:17:52;14.23;;;10.73;;
71236;SDS011;58984;51.960;5.582;2023-03-01T02:22:45;14.25;;;10.25;;
71236;SDS011;58984;51.960;5.582;2023-03-01T02:30:28;13.93;;;10.60;;
71236;SDS011;58984;51.960;5.582;2023-03-01T02:32:54;14.70;;;10.80;;
71236;SDS011;58984;51.960;5.582;2023-03-01T02:35:27;17.75;;;11.43;;
71236;SDS011;58984;51.960;5.582;2023-03-01T02:37:55;14.40;;;11.45;;
71236;SDS011;58984;51.960;5.582;2023-03-01T02:40:22;14.35;;;11.20;;
71236;SDS011;58984;51.960;5.582;2023-03-01T02:42:50;20.23;;;11.43;;
71236;SDS011;58984;51.960;5.582;2023-03-01T02:45:19;16.85;;;11.10;;
71236;SDS011;58984;51.960;5.582;2023-03-01T02:47:45;18.73;;;11.35;;
71236;SDS011;58984;51.960;5.582;2023-03-01T02:50:46;16.92;;;11.23;;
71236;SDS011;58984;51.960;5.582;2023-03-01T02:53:39;15.45;;;10.52;;
71236;SDS011;58984;51.960;5.582;2023-03-01T02:56:26;17.40;;;11.10;;
71236;SDS011;58984;51.960;5.582;2023-03-01T02:58:53;15.57;;;11.02;;
71236;SDS011;58984;51.960;5.582;2023-03-01T03:01:19;15.43;;;10.43;;
71236;SDS011;58984;51.960;5.582;2023-03-01T03:03:45;17.88;;;11.27;;
71236;SDS011;58984;51.960;5.582;2023-03-01T03:06:11;14.35;;;11.00;;
71236;SDS011;58984;51.960;5.582;2023-03-01T03:08:37;15.65;;;11.32;;
71236;SDS011;58984;51.960;5.582;2023-03-01T03:11:03;18.50;;;10.57;;
71236;SDS011;58984;51.960;5.582;2023-03-01T03:13:28;12.57;;;10.57;;
71236;SDS011;58984;51.960;5.582;2023-03-01T03:15:55;18.10;;;11.30;;
71236;SDS011;58984;51.960;5.582;2023-03-01T03:18:21;13.48;;;11.45;;
71236;SDS011;58984;51.960;5.582;2023-03-01T03:20:48;13.35;;;11.23;;
71236;SDS011;58984;51.960;5.582;2023-03-01T03:23:17;15.57;;;11.02;;
71236;SDS011;58984;51.960;5.582;2023-03-01T03:25:49;16.33;;;10.52;;
71236;SDS011;58984;51.960;5.582;2023-03-01T03:28:15;14.93;;;10.07;;
71236;SDS011;58984;51.960;5.582;2023-03-01T03:30:43;14.00;;;10.90;;
71236;SDS011;58984;51.960;5.582;2023-03-01T03:33:10;16.92;;;10.57;;
71236;SDS011;58984;51.960;5.582;2023-03-01T03:35:47;16.90;;;10.50;;
71236;SDS011;58984;51.960;5.582;2023-03-01T03:38:14;13.20;;;10.35;;
71236;SDS011;58984;51.960;5.582;2023-03-01T03:41:03;15.23;;;9.18;;
71236;SDS011;58984;51.960;5.582;2023-03-01T03:43:32;14.57;;;9.98;;
71236;SDS011;58984;51.960;5.582;2023-03-01T03:46:00;15.80;;;10.43;;
71236;SDS011;58984;51.960;5.582;2023-03-01T03:48:30;14.35;;;10.15;;
71236;SDS011;58984;51.960;5.582;2023-03-01T03:50:57;13.80;;;9.45;;
71236;SDS011;58984;51.960;5.582;2023-03-01T03:53:23;13.57;;;10.25;;
71236;SDS011;58984;51.960;5.582;2023-03-01T03:55:54;11.70;;;9.27;;
71236;SDS011;58984;51.960;5.582;2023-03-01T03:58:20;12.45;;;9.88;;
71236;SDS011;58984;51.960;5.582;2023-03-01T04:00:48;11.68;;;9.43;;
71236;SDS011;58984;51.960;5.582;2023-03-01T04:03:17;12.57;;;10.43;;
71236;SDS011;58984;51.960;5.582;2023-03-01T04:05:44;16.13;;;10.02;;
71236;SDS011;58984;51.960;5.582;2023-03-01T04:08:10;13.70;;;9.77;;
71236;SDS011;58984;51.960;5.582;2023-03-01T04:10:37;14.75;;;9.60;;
71236;SDS011;58984;51.960;5.582;2023-03-01T04:13:04;10.88;;;9.13;;
71236;SDS011;58984;51.960;5.582;2023-03-01T04:15:31;14.60;;;9.10;;
71236;SDS011;58984;51.960;5.582;2023-03-01T04:17:58;14.18;;;9.80;;
71236;SDS011;58984;51.960;5.582;2023-03-01T04:20:25;12.82;;;9.50;;
71236;SDS011;58984;51.960;5.582;2023-03-01T04:23:04;15.38;;;10.25;;
71236;SDS011;58984;51.960;5.582;2023-03-01T04:31:17;13.65;;;9.68;;
71236;SDS011;58984;51.960;5.582;2023-03-01T04:33:47;17.77;;;10.35;;
71236;SDS011;58984;51.960;5.582;2023-03-01T04:36:14;17.60;;;9.85;;
71236;SDS011;58984;51.960;5.582;2023-03-01T04:38:41;13.00;;;9.35;;
71236;SDS011;58984;51.960;5.582;2023-03-01T04:41:08;12.15;;;9.40;;
71236;SDS011;58984;51.960;5.582;2023-03-01T04:43:36;11.77;;;9.45;;
71236;SDS011;58984;51.960;5.582;2023-03-01T04:46:03;14.82;;;9.73;;
71236;SDS011;58984;51.960;5.582;2023-03-01T04:48:31;12.27;;;9.25;;
71236;SDS011;58984;51.960;5.582;2023-03-01T04:50:58;13.88;;;9.65;;
71236;SDS011;58984;51.960;5.582;2023-03-01T04:53:24;16.02;;;9.75;;
71236;SDS011;58984;51.960;5.582;2023-03-01T04:55:50;14.68;;;9.60;;
71236;SDS011;58984;51.960;5.582;2023-03-01T04:58:15;11.38;;;9.35;;
71236;SDS011;58984;51.960;5.582;2023-03-01T05:00:41;12.45;;;9.30;;
71236;SDS011;58984;51.960;5.582;2023-03-01T05:03:07;13.02;;;9.65;;
71236;SDS011;58984;51.960;5.582;2023-03-01T05:05:34;14.48;;;9.75;;
71236;SDS011;58984;51.960;5.582;2023-03-01T05:08:02;14.75;;;8.90;;
71236;SDS011;58984;51.960;5.582;2023-03-01T05:10:30;13.20;;;9.25;;
71236;SDS011;58984;51.960;5.582;2023-03-01T05:12:57;12.45;;;8.90;;
71236;SDS011;58984;51.960;5.582;2023-03-01T05:15:24;14.45;;;9.55;;
71236;SDS011;58984;51.960;5.582;2023-03-01T05:17:54;12.02;;;9.13;;
71236;SDS011;58984;51.960;5.582;2023-03-01T05:20:23;14.05;;;9.23;;
71236;SDS011;58984;51.960;5.582;2023-03-01T05:22:50;14.63;;;9.23;;
71236;SDS011;58984;51.960;5.582;2023-03-01T05:25:16;12.18;;;9.07;;
71236;SDS011;58984;51.960;5.582;2023-03-01T05:27:42;13.15;;;9.23;;
71236;SDS011;58984;51.960;5.582;2023-03-01T05:30:08;14.48;;;8.98;;
71236;SDS011;58984;51.960;5.582;2023-03-01T05:32:41;15.27;;;8.77;;
71236;SDS011;58984;51.960;5.582;2023-03-01T05:35:12;11.82;;;9.07;;
71236;SDS011;58984;51.960;5.582;2023-03-01T05:37:42;14.45;;;8.40;;
71236;SDS011;58984;51.960;5.582;2023-03-01T05:40:09;12.57;;;9.23;;
71236;SDS011;58984;51.960;5.582;2023-03-01T05:42:41;11.95;;;8.32;;
71236;SDS011;58984;51.960;5.582;2023-03-01T05:45:25;11.07;;;8.77;;
71236;SDS011;58984;51.960;5.582;2023-03-01T05:47:52;13.63;;;8.90;;
71236;SDS011;58984;51.960;5.582;2023-03-01T05:50:21;12.73;;;9.65;;
71236;SDS011;58984;51.960;5.582;2023-03-01T05:52:49;11.05;;;8.55;;
71236;SDS011;58984;51.960;5.582;2023-03-01T05:55:17;12.90;;;9.15;;
71236;SDS011;58984;51.960;5.582;2023-03-01T05:57:44;13.45;;;8.50;;
71236;SDS011;58984;51.960;5.582;2023-03-01T06:00:10;10.57;;;8.77;;
71236;SDS011;58984;51.960;5.582;2023-03-01T06:02:36;11.27;;;9.55;;
71236;SDS011;58984;51.960;5.582;2023-03-01T06:05:03;12.38;;;8.95;;
71236;SDS011;58984;51.960;5.582;2023-03-01T06:07:30;14.10;;;9.00;;
71236;SDS011;58984;51.960;5.582;2023-03-01T06:09:56;12.70;;;9.05;;
71236;SDS011;58984;51.960;5.582;2023-03-01T06:12:21;11.23;;;8.52;;
71236;SDS011;58984;51.960;5.582;2023-03-01T06:14:47;13.85;;;9.05;;
71236;SDS011;58984;51.960;5.582;2023-03-01T06:17:13;11.73;;;8.93;;
71236;SDS011;58984;51.960;5.582;2023-03-01T06:19:38;14.93;;;9.32;;
71236;SDS011;58984;51.960;5.582;2023-03-01T06:22:04;12.73;;;8.70;;
71236;SDS011;58984;51.960;5.582;2023-03-01T06:24:29;14.32;;;9.15;;
71236;SDS011;58984;51.960;5.582;2023-03-01T06:26:55;11.65;;;9.18;;
71236;SDS011;58984;51.960;5.582;2023-03-01T06:29:22;12.10;;;8.63;;
71236;SDS011;58984;51.960;5.582;2023-03-01T06:31:48;12.68;;;9.13;;
71236;SDS011;58984;51.960;5.582;2023-03-01T06:34:14;9.85;;;8.88;;
71236;SDS011;58984;51.960;5.582;2023-03-01T06:36:39;12.10;;;8.77;;
71236;SDS011;58984;51.960;5.582;2023-03-01T06:39:05;11.98;;;9.32;;
71236;SDS011;58984;51.960;5.582;2023-03-01T06:41:31;13.25;;;9.88;;
71236;SDS011;58984;51.960;5.582;2023-03-01T06:43:58;14.77;;;9.65;;
71236;SDS011;58984;51.960;5.582;2023-03-01T06:46:24;13.50;;;9.43;;
71236;SDS011;58984;51.960;5.582;2023-03-01T06:48:50;15.13;;;10.70;;
71236;SDS011;58984;51.960;5.582;2023-03-01T06:51:15;16.02;;;9.63;;
71236;SDS011;58984;51.960;5.582;2023-03-01T06:53:41;15.05;;;9.98;;
71236;SDS011;58984;51.960;5.582;2023-03-01T06:56:06;14.07;;;9.60;;
71236;SDS011;58984;51.960;5.582;2023-03-01T06:58:32;11.73;;;10.10;;
71236;SDS011;58984;51.960;5.582;2023-03-01T07:00:57;17.55;;;10.25;;
71236;SDS011;58984;51.960;5.582;2023-03-01T07:03:23;13.82;;;9.85;;
71236;SDS011;58984;51.960;5.582;2023-03-01T07:05:49;18.98;;;11.05;;
71236;SDS011;58984;51.960;5.582;2023-03-01T07:08:17;18.40;;;10.50;;
71236;SDS011;58984;51.960;5.582;2023-03-01T07:10:43;15.55;;;10.55;;
71236;SDS011;58984;51.960;5.582;2023-03-01T07:13:09;15.95;;;10.20;;
71236;SDS011;58984;51.960;5.582;2023-03-01T07:15:35;15.52;;;9.90;;
71236;SDS011;58984;51.960;5.582;2023-03-01T07:18:00;16.83;;;10.43;;
71236;SDS011;58984;51.960;5.582;2023-03-01T07:20:26;16.20;;;10.52;;
71236;SDS011;58984;51.960;5.582;2023-03-01T07:22:52;15.80;;;9.32;;
71236;SDS011;58984;51.960;5.582;2023-03-01T07:25:19;15.35;;;9.88;;
71236;SDS011;58984;51.960;5.582;2023-03-01T07:27:48;13.65;;;10.07;;
71236;SDS011;58984;51.960;5.582;2023-03-01T07:30:17;16.45;;;10.48;;
71236;SDS011;58984;51.960;5.582;2023-03-01T07:32:43;14.65;;;9.63;;
71236;SDS011;58984;51.960;5.582;2023-03-01T07:35:10;14.48;;;9.82;;
71236;SDS011;58984;51.960;5.582;2023-03-01T07:37:35;14.48;;;9.90;;
71236;SDS011;58984;51.960;5.582;2023-03-01T07:40:01;16.73;;;10.60;;
71236;SDS011;58984;51.960;5.582;2023-03-01T07:42:27;16.02;;;10.40;;
71236;SDS011;58984;51.960;5.582;2023-03-01T07:44:52;12.68;;;10.57;;
71236;SDS011;58984;51.960;5.582;2023-03-01T07:47:18;27.92;;;13.02;;
71236;SDS011;58984;51.960;5.582;2023-03-01T07:49:43;22.98;;;11.73;;
71236;SDS011;58984;51.960;5.582;2023-03-01T07:52:09;18.23;;;11.57;;
71236;SDS011;58984;51.960;5.582;2023-03-01T07:54:36;15.98;;;10.70;;
71236;SDS011;58984;51.960;5.582;2023-03-01T07:57:03;20.10;;;11.57;;
71236;SDS011;58984;51.960;5.582;2023-03-01T07:59:28;14.20;;;10.77;;
71236;SDS011;58984;51.960;5.582;2023-03-01T08:01:57;19.60;;;11.18;;
71236;SDS011;58984;51.960;5.582;2023-03-01T08:04:23;16.02;;;10.18;;
71236;SDS011;58984;51.960;5.582;2023-03-01T08:06:51;16.85;;;10.50;;
71236;SDS011;58984;51.960;5.582;2023-03-01T08:09:17;16.42;;;10.20;;
71236;SDS011;58984;51.960;5.582;2023-03-01T08:11:43;16.17;;;11.00;;
71236;SDS011;58984;51.960;5.582;2023-03-01T08:14:08;17.05;;;11.18;;
71236;SDS011;58984;51.960;5.582;2023-03-01T08:16:35;16.45;;;10.82;;
71236;SDS011;58984;51.960;5.582;2023-03-01T08:19:08;16.83;;;10.55;;
71236;SDS011;58984;51.960;5.582;2023-03-01T08:21:35;20.80;;;11.50;;
71236;SDS011;58984;51.960;5.582;2023-03-01T08:24:02;16.20;;;10.77;;
71236;SDS011;58984;51.960;5.582;2023-03-01T08:26:28;18.00;;;10.77;;
71236;SDS011;58984;51.960;5.582;2023-03-01T08:28:54;15.18;;;10.80;;
71236;SDS011;58984;51.960;5.582;2023-03-01T08:31:20;17.10;;;11.20;;
71236;SDS011;58984;51.960;5.582;2023-03-01T08:33:50;17.25;;;10.77;;
71236;SDS011;58984;51.960;5.582;2023-03-01T08:36:20;15.95;;;10.75;;
71236;SDS011;58984;51.960;5.582;2023-03-01T08:38:46;21.60;;;10.95;;
71236;SDS011;58984;51.960;5.582;2023-03-01T08:41:12;18.52;;;10.80;;
71236;SDS011;58984;51.960;5.582;2023-03-01T08:43:38;18.02;;;11.65;;
71236;SDS011;58984;51.960;5.582;2023-03-01T08:46:04;17.08;;;11.43;;
71236;SDS011;58984;51.960;5.582;2023-03-01T08:48:29;15.63;;;10.32;;
71236;SDS011;58984;51.960;5.582;2023-03-01T08:50:55;16.73;;;11.48;;
71236;SDS011;58984;51.960;5.582;2023-03-01T08:53:21;12.32;;;9.85;;
71236;SDS011;58984;51.960;5.582;2023-03-01T08:55:46;15.68;;;10.75;;
71236;SDS011;58984;51.960;5.582;2023-03-01T08:58:12;15.38;;;10.27;;
71236;SDS011;58984;51.960;5.582;2023-03-01T09:00:37;15.27;;;9.73;;
71236;SDS011;58984;51.960;5.582;2023-03-01T09:03:03;13.85;;;9.48;;
71236;SDS011;58984;51.960;5.582;2023-03-01T09:05:32;11.65;;;9.00;;
71236;SDS011;58984;51.960;5.582;2023-03-01T09:07:59;12.65;;;9.43;;
71236;SDS011;58984;51.960;5.582;2023-03-01T09:10:24;14.52;;;8.23;;
71236;SDS011;58984;51.960;5.582;2023-03-01T09:12:51;12.02;;;8.57;;
71236;SDS011;58984;51.960;5.582;2023-03-01T09:15:16;11.13;;;8.35;;
71236;SDS011;58984;51.960;5.582;2023-03-01T09:17:42;11.43;;;8.57;;
71236;SDS011;58984;51.960;5.582;2023-03-01T09:20:08;11.73;;;8.90;;
71236;SDS011;58984;51.960;5.582;2023-03-01T09:22:35;9.98;;;7.35;;
71236;SDS011;58984;51.960;5.582;2023-03-01T09:25:00;12.95;;;8.15;;
71236;SDS011;58984;51.960;5.582;2023-03-01T09:27:26;11.95;;;7.65;;
71236;SDS011;58984;51.960;5.582;2023-03-01T09:29:51;14.57;;;7.75;;
71236;SDS011;58984;51.960;5.582;2023-03-01T09:32:17;10.05;;;7.05;;
71236;SDS011;58984;51.960;5.582;2023-03-01T09:34:43;7.80;;;7.00;;
71236;SDS011;58984;51.960;5.582;2023-03-01T09:37:28;9.00;;;6.95;;
71236;SDS011;58984;51.960;5.582;2023-03-01T09:39:54;8.73;;;6.28;;
71236;SDS011;58984;51.960;5.582;2023-03-01T09:42:19;7.38;;;6.22;;
71236;SDS011;58984;51.960;5.582;2023-03-01T09:44:48;9.27;;;5.88;;
71236;SDS011;58984;51.960;5.582;2023-03-01T09:47:26;8.38;;;6.07;;
71236;SDS011;58984;51.960;5.582;2023-03-01T09:52:46;8.07;;;5.85;;
71236;SDS011;58984;51.960;5.582;2023-03-01T09:55:20;7.15;;;5.53;;
71236;SDS011;58984;51.960;5.582;2023-03-01T09:57:58;7.43;;;5.63;;
71236;SDS011;58984;51.960;5.582;2023-03-01T10:03:16;9.35;;;4.82;;
71236;SDS011;58984;51.960;5.582;2023-03-01T10:06:06;6.63;;;4.65;;
71236;SDS011;58984;51.960;5.582;2023-03-01T10:11:04;6.70;;;4.30;;
71236;SDS011;58984;51.960;5.582;2023-03-01T10:16:24;5.75;;;4.82;;
71236;SDS011;58984;51.960;5.582;2023-03-01T10:19:03;6.15;;;4.38;;
71236;SDS011;58984;51.960;5.582;2023-03-01T10:21:30;8.13;;;4.72;;
71236;SDS011;58984;51.960;5.582;2023-03-01T10:24:16;5.70;;;4.00;;
71236;SDS011;58984;51.960;5.582;2023-03-01T10:29:26;6.82;;;4.35;;
71236;SDS011;58984;51.960;5.582;2023-03-01T10:31:59;6.28;;;4.30;;
71236;SDS011;58984;51.960;5.582;2023-03-01T10:34:30;5.22;;;3.90;;
71236;SDS011;58984;51.960;5.582;2023-03-01T10:37:11;9.13;;;4.68;;
71236;SDS011;58984;51.960;5.582;2023-03-01T10:39:54;5.95;;;4.60;;
71236;SDS011;58984;51.960;5.582;2023-03-01T10:42:26;5.53;;;4.43;;
71236;SDS011;58984;51.960;5.582;2023-03-01T10:44:54;6.50;;;3.90;;
71236;SDS011;58984;51.960;5.582;2023-03-01T10:47:20;8.18;;;4.13;;
71236;SDS011;58984;51.960;5.582;2023-03-01T10:52:24;6.60;;;4.45;;
71236;SDS011;58984;51.960;5.582;2023-03-01T10:55:02;6.55;;;4.03;;
71236;SDS011;58984;51.960;5.582;2023-03-01T10:57:46;5.03;;;4.10;;
71236;SDS011;58984;51.960;5.582;2023-03-01T11:00:20;4.80;;;4.00;;
71236;SDS011;58984;51.960;5.582;2023-03-01T11:03:12;6.32;;;4.60;;
71236;SDS011;58984;51.960;5.582;2023-03-01T11:05:49;7.20;;;4.05;;
71236;SDS011;58984;51.960;5.582;2023-03-01T11:08:31;5.10;;;4.05;;
71236;SDS011;58984;51.960;5.582;2023-03-01T11:11:13;4.95;;;3.70;;
71236;SDS011;58984;51.960;5.582;2023-03-01T11:13:51;6.25;;;3.83;;
71236;SDS011;58984;51.960;5.582;2023-03-01T11:16:17;7.95;;;4.13;;
71236;SDS011;58984;51.960;5.582;2023-03-01T11:19:00;7.80;;;4.00;;
71236;SDS011;58984;51.960;5.582;2023-03-01T11:24:43;6.15;;;4.32;;
71236;SDS011;58984;51.960;5.582;2023-03-01T11:27:14;8.10;;;4.10;;
71236;SDS011;58984;51.960;5.582;2023-03-01T11:29:52;5.20;;;3.70;;
71236;SDS011;58984;51.960;5.582;2023-03-01T11:32:23;5.45;;;3.92;;
71236;SDS011;58984;51.960;5.582;2023-03-01T11:34:59;5.72;;;4.07;;
71236;SDS011;58984;51.960;5.582;2023-03-01T11:45:47;6.07;;;3.97;;
71236;SDS011;58984;51.960;5.582;2023-03-01T11:57:10;7.53;;;4.40;;
71236;SDS011;58984;51.960;5.582;2023-03-01T12:00:02;6.07;;;3.70;;
71236;SDS011;58984;51.960;5.582;2023-03-01T12:08:06;3.65;;;3.20;;
71236;SDS011;58984;51.960;5.582;2023-03-01T12:10:52;5.15;;;3.60;;
71236;SDS011;58984;51.960;5.582;2023-03-01T12:13:42;5.57;;;3.88;;
71236;SDS011;58984;51.960;5.582;2023-03-01T12:16:36;6.40;;;4.25;;
71236;SDS011;58984;51.960;5.582;2023-03-01T12:22:17;6.88;;;3.60;;
71236;SDS011;58984;51.960;5.582;2023-03-01T12:33:29;5.50;;;3.58;;
71236;SDS011;58984;51.960;5.582;2023-03-01T12:36:21;8.60;;;3.80;;
71236;SDS011;58984;51.960;5.582;2023-03-01T12:49:50;5.45;;;3.95;;
71236;SDS011;58984;51.960;5.582;2023-03-01T12:52:42;7.70;;;3.50;;
71236;SDS011;58984;51.960;5.582;2023-03-01T12:55:23;8.05;;;3.72;;
71236;SDS011;58984;51.960;5.582;2023-03-01T13:06:31;5.97;;;3.75;;
71236;SDS011;58984;51.960;5.582;2023-03-01T13:09:19;4.18;;;3.10;;
71236;SDS011;58984;51.960;5.582;2023-03-01T13:17:48;5.55;;;3.97;;
71236;SDS011;58984;51.960;5.582;2023-03-01T13:20:16;6.45;;;3.58;;
71236;SDS011;58984;51.960;5.582;2023-03-01T13:22:45;5.65;;;3.50;;
71236;SDS011;58984;51.960;5.582;2023-03-01T13:25:13;5.93;;;3.80;;
71236;SDS011;58984;51.960;5.582;2023-03-01T13:27:41;5.90;;;4.07;;
71236;SDS011;58984;51.960;5.582;2023-03-01T13:30:50;5.82;;;3.67;;
71236;SDS011;58984;51.960;5.582;2023-03-01T13:33:33;5.68;;;3.88;;
71236;SDS011;58984;51.960;5.582;2023-03-01T13:36:05;6.50;;;4.00;;
71236;SDS011;58984;51.960;5.582;2023-03-01T13:49:35;8.30;;;6.20;;
71236;SDS011;58984;51.960;5.582;2023-03-01T13:52:13;9.77;;;6.65;;
71236;SDS011;58984;51.960;5.582;2023-03-01T13:55:00;8.02;;;6.20;;
71236;SDS011;58984;51.960;5.582;2023-03-01T13:57:32;8.27;;;6.40;;
71236;SDS011;58984;51.960;5.582;2023-03-01T13:59:59;7.47;;;6.53;;
71236;SDS011;58984;51.960;5.582;2023-03-01T14:02:25;11.13;;;6.43;;
71236;SDS011;58984;51.960;5.582;2023-03-01T14:04:57;11.02;;;6.43;;
71236;SDS011;58984;51.960;5.582;2023-03-01T14:07:25;10.93;;;6.25;;
71236;SDS011;58984;51.960;5.582;2023-03-01T14:10:03;9.38;;;6.20;;
71236;SDS011;58984;51.960;5.582;2023-03-01T14:15:26;9.68;;;6.65;;
71236;SDS011;58984;51.960;5.582;2023-03-01T14:18:02;12.60;;;6.18;;
71236;SDS011;58984;51.960;5.582;2023-03-01T14:20:38;8.75;;;6.18;;
71236;SDS011;58984;51.960;5.582;2023-03-01T14:23:11;9.80;;;6.25;;
71236;SDS011;58984;51.960;5.582;2023-03-01T14:25:39;12.25;;;6.93;;
71236;SDS011;58984;51.960;5.582;2023-03-01T14:28:23;17.42;;;6.70;;
71236;SDS011;58984;51.960;5.582;2023-03-01T14:30:52;8.65;;;5.90;;
71236;SDS011;58984;51.960;5.582;2023-03-01T14:33:26;11.25;;;6.32;;
71236;SDS011;58984;51.960;5.582;2023-03-01T14:35:53;10.27;;;6.13;;
71236;SDS011;58984;51.960;5.582;2023-03-01T14:38:23;10.63;;;5.90;;
71236;SDS011;58984;51.960;5.582;2023-03-01T14:40:56;11.10;;;6.53;;
71236;SDS011;58984;51.960;5.582;2023-03-01T14:43:26;8.73;;;5.93;;
71236;SDS011;58984;51.960;5.582;2023-03-01T14:45:53;8.40;;;6.38;;
71236;SDS011;58984;51.960;5.582;2023-03-01T14:48:20;9.95;;;6.07;;
71236;SDS011;58984;51.960;5.582;2023-03-01T14:50:46;10.40;;;6.15;;
71236;SDS011;58984;51.960;5.582;2023-03-01T14:53:17;10.48;;;6.63;;
71236;SDS011;58984;51.960;5.582;2023-03-01T14:55:46;7.25;;;5.47;;
71236;SDS011;58984;51.960;5.582;2023-03-01T14:58:25;10.10;;;5.95;;
71236;SDS011;58984;51.960;5.582;2023-03-01T15:06:22;10.75;;;6.57;;
71236;SDS011;58984;51.960;5.582;2023-03-01T15:08:52;15.10;;;6.53;;
71236;SDS011;58984;51.960;5.582;2023-03-01T15:11:32;8.63;;;5.90;;
71236;SDS011;58984;51.960;5.582;2023-03-01T15:13:59;18.83;;;9.00;;
71236;SDS011;58984;51.960;5.582;2023-03-01T15:16:29;9.98;;;6.05;;
71236;SDS011;58984;51.960;5.582;2023-03-01T15:19:03;18.55;;;7.03;;
71236;SDS011;58984;51.960;5.582;2023-03-01T15:21:31;18.48;;;6.70;;
71236;SDS011;58984;51.960;5.582;2023-03-01T15:26:56;13.02;;;6.38;;
71236;SDS011;58984;51.960;5.582;2023-03-01T15:29:28;12.30;;;5.72;;
71236;SDS011;58984;51.960;5.582;2023-03-01T15:31:56;13.57;;;6.50;;
71236;SDS011;58984;51.960;5.582;2023-03-01T15:36:58;8.38;;;6.05;;
71236;SDS011;58984;51.960;5.582;2023-03-01T15:39:33;14.20;;;6.03;;
71236;SDS011;58984;51.960;5.582;2023-03-01T15:43:06;12.77;;;5.32;;
71236;SDS011;58984;51.960;5.582;2023-03-01T15:47:34;7.95;;;5.30;;
71236;SDS011;58984;51.960;5.582;2023-03-01T15:50:03;7.82;;;4.60;;
71236;SDS011;58984;51.960;5.582;2023-03-01T15:52:32;8.38;;;5.10;;
71236;SDS011;58984;51.960;5.582;2023-03-01T15:55:05;6.47;;;4.70;;
71236;SDS011;58984;51.960;5.582;2023-03-01T15:57:39;8.13;;;4.60;;
71236;SDS011;58984;51.960;5.582;2023-03-01T16:00:05;9.77;;;4.90;;
71236;SDS011;58984;51.960;5.582;2023-03-01T16:02:38;8.05;;;4.70;;
71236;SDS011;58984;51.960;5.582;2023-03-01T16:05:04;5.93;;;4.45;;
71236;SDS011;58984;51.960;5.582;2023-03-01T16:07:30;7.68;;;4.28;;
71236;SDS011;58984;51.960;5.582;2023-03-01T16:09:56;6.63;;;4.80;;
71236;SDS011;58984;51.960;5.582;2023-03-01T16:12:22;7.20;;;4.20;;
71236;SDS011;58984;51.960;5.582;2023-03-01T16:14:49;7.95;;;4.65;;
71236;SDS011;58984;51.960;5.582;2023-03-01T16:17:15;8.60;;;4.47;;
71236;SDS011;58984;51.960;5.582;2023-03-01T16:19:40;6.10;;;3.90;;
71236;SDS011;58984;51.960;5.582;2023-03-01T16:22:06;8.13;;;4.68;;
71236;SDS011;58984;51.960;5.582;2023-03-01T16:24:35;8.13;;;4.13;;
71236;SDS011;58984;51.960;5.582;2023-03-01T16:27:01;5.47;;;3.85;;
71236;SDS011;58984;51.960;5.582;2023-03-01T16:29:27;6.65;;;4.07;;
71236;SDS011;58984;51.960;5.582;2023-03-01T16:31:54;4.60;;;3.72;;
71236;SDS011;58984;51.960;5.582;2023-03-01T16:34:19;5.25;;;4.40;;
71236;SDS011;58984;51.960;5.582;2023-03-01T16:36:48;7.75;;;3.92;;
71236;SDS011;58984;51.960;5.582;2023-03-01T16:39:13;7.18;;;3.88;;
71236;SDS011;58984;51.960;5.582;2023-03-01T16:41:39;5.30;;;3.83;;
71236;SDS011;58984;51.960;5.582;2023-03-01T16:44:05;4.70;;;3.55;;
71236;SDS011;58984;51.960;5.582;2023-03-01T16:46:30;6.72;;;4.10;;
71236;SDS011;58984;51.960;5.582;2023-03-01T16:48:56;6.63;;;4.28;;
71236;SDS011;58984;51.960;5.582;2023-03-01T16:51:22;7.85;;;3.88;;
71236;SDS011;58984;51.960;5.582;2023-03-01T16:53:49;6.05;;;3.95;;